Time;durP1;ratioP1;P1;durP2;ratioP2;P2;SDS_P1;SDS_P2;PMS_P1;PMS_P2;Temp;Humidity;BMP_temperature;BMP_pressure;BME280_temperature;BME280_humidity;BME280_pressure;Samples;Min_cycle;Max_cycle;Signal;HPM_P1;HPM_P2
2023/08/29 00:01:02;;;;;;;6.90;6.20;;;14.80;99.90;;;;;;5041849;28;20236;-72
2023/08/29 00:03:28;;;;;;;8.03;7.33;;;14.80;99.90;;;;;;5028346;28;20198;-71
2023/08/29 00:06:04;;;;;;;6.67;6.07;;;14.80;99.90;;;;;;5028194;28;20417;-72
2023/08/29 00:08:30;;;;;;;7.30;6.60;;;14.80;99.90;;;;;;5027487;28;20536;-72
2023/08/29 00:11:00;;;;;;;8.20;7.43;;;14.80;99.90;;;;;;5028464;28;20459;-72
2023/08/29 00:13:26;;;;;;;8.70;7.90;;;14.70;99.90;;;;;;5028123;28;20417;-72
2023/08/29 00:15:52;;;;;;;8.60;7.90;;;14.70;99.90;;;;;;5026214;28;20838;-72
2023/08/29 00:18:21;;;;;;;7.90;7.20;;;14.70;99.90;;;;;;5027554;28;20436;-71
2023/08/29 00:20:50;;;;;;;8.63;7.93;;;14.70;99.90;;;;;;5028155;28;20413;-72
2023/08/29 00:23:16;;;;;;;8.80;8.00;;;14.60;99.90;;;;;;5026621;28;20844;-72
2023/08/29 00:25:42;;;;;;;8.37;7.57;;;14.50;99.90;;;;;;5027889;28;20488;-72
2023/08/29 00:28:07;;;;;;;8.40;7.70;;;14.50;99.90;;;;;;5037816;28;20209;-72
2023/08/29 00:30:38;;;;;;;8.50;7.80;;;14.40;99.90;;;;;;5045900;28;20202;-72
2023/08/29 00:33:05;;;;;;;9.03;7.43;;;14.40;99.90;;;;;;5047918;28;20190;-71
2023/08/29 00:35:30;;;;;;;7.60;6.90;;;14.30;99.90;;;;;;5046426;28;20464;-72
2023/08/29 00:37:57;;;;;;;8.37;7.57;;;14.30;99.90;;;;;;5047140;28;20412;-72
2023/08/29 00:40:31;;;;;;;7.30;6.70;;;14.30;99.90;;;;;;5046784;28;20181;-71
2023/08/29 00:43:01;;;;;;;11.23;7.90;;;14.20;99.90;;;;;;5046547;28;20968;-72
2023/08/29 00:45:33;;;;;;;10.20;7.50;;;14.20;99.90;;;;;;5029538;28;20786;-71
2023/08/29 00:48:02;;;;;;;8.77;7.87;;;14.20;99.90;;;;;;5045994;28;20423;-71
2023/08/29 00:50:29;;;;;;;8.43;7.73;;;14.20;99.90;;;;;;5047521;28;20412;-71
2023/08/29 00:52:58;;;;;;;8.07;7.27;;;14.20;99.90;;;;;;5047810;28;20884;-71
2023/08/29 00:55:26;;;;;;;8.93;8.03;;;14.10;99.90;;;;;;5047080;28;20467;-72
2023/08/29 00:57:56;;;;;;;7.70;7.00;;;14.10;99.90;;;;;;5046984;28;20416;-71
2023/08/29 01:00:26;;;;;;;8.23;7.40;;;14.20;99.90;;;;;;5045613;28;20769;-71
2023/08/29 01:02:52;;;;;;;8.23;7.43;;;14.10;99.90;;;;;;5047649;28;20959;-71
2023/08/29 01:05:20;;;;;;;8.07;7.37;;;14.10;99.90;;;;;;5047177;28;20424;-71
2023/08/29 01:07:53;;;;;;;8.30;7.53;;;14.10;99.90;;;;;;5045865;28;20925;-71
2023/08/29 01:10:27;;;;;;;8.13;7.43;;;14.10;99.90;;;;;;5047216;28;20921;-71
2023/08/29 01:13:10;;;;;;;8.20;7.50;;;14.10;99.90;;;;;;5047692;28;20969;-72
2023/08/29 01:15:36;;;;;;;7.73;7.07;;;14.20;99.90;;;;;;5046003;28;20455;-71
2023/08/29 01:18:05;;;;;;;8.80;7.90;;;14.10;99.90;;;;;;5045248;28;20412;-71
2023/08/29 01:20:33;;;;;;;7.73;6.97;;;14.10;99.90;;;;;;5047382;28;20427;-71
2023/08/29 01:23:10;;;;;;;8.33;7.33;;;14.00;99.90;;;;;;5047245;28;20774;-71
2023/08/29 01:25:48;;;;;;;7.87;7.13;;;14.00;99.90;;;;;;5045985;28;21282;-71
2023/08/29 01:28:14;;;;;;;8.67;7.87;;;13.90;99.90;;;;;;5047590;28;20935;-72
2023/08/29 01:30:41;;;;;;;8.17;7.37;;;13.90;99.90;;;;;;5051124;28;20447;-71
2023/08/29 01:33:07;;;;;;;9.40;8.50;;;13.90;99.90;;;;;;5051213;28;20193;-71
2023/08/29 01:35:33;;;;;;;8.60;7.80;;;13.80;99.90;;;;;;5050942;28;20966;-72
2023/08/29 01:37:59;;;;;;;8.90;7.97;;;13.80;99.90;;;;;;5050386;28;20413;-71
2023/08/29 01:40:24;;;;;;;10.67;9.67;;;13.80;99.90;;;;;;5051377;28;20423;-71
2023/08/29 01:42:50;;;;;;;9.57;8.67;;;13.80;99.90;;;;;;5049824;28;20261;-71
2023/08/29 01:45:16;;;;;;;9.53;8.63;;;13.80;99.90;;;;;;5050810;28;20182;-71
2023/08/29 01:47:42;;;;;;;9.00;8.20;;;13.80;99.90;;;;;;5049701;28;20260;-72
2023/08/29 01:50:11;;;;;;;9.87;8.87;;;13.90;99.90;;;;;;5050751;28;20194;-71
2023/08/29 01:52:37;;;;;;;8.90;8.10;;;13.90;99.90;;;;;;5049929;28;20512;-71
2023/08/29 01:55:03;;;;;;;9.07;8.27;;;13.90;99.90;;;;;;5050580;28;20448;-72
2023/08/29 01:57:33;;;;;;;9.83;8.73;;;13.90;99.90;;;;;;5049114;28;20546;-72
2023/08/29 02:00:00;;;;;;;8.73;7.93;;;13.80;99.90;;;;;;5049536;28;20450;-72
2023/08/29 02:02:25;;;;;;;8.40;7.70;;;13.80;99.90;;;;;;5049781;28;20405;-72
2023/08/29 02:04:51;;;;;;;11.50;8.90;;;13.70;99.90;;;;;;5050809;28;20423;-72
2023/08/29 02:07:17;;;;;;;9.10;8.20;;;13.70;99.90;;;;;;5050364;28;20189;-72
2023/08/29 02:09:42;;;;;;;9.30;7.73;;;13.70;99.90;;;;;;5050799;28;20198;-72
2023/08/29 02:12:08;;;;;;;9.37;8.57;;;13.60;99.90;;;;;;5050838;28;20182;-72
2023/08/29 02:14:34;;;;;;;12.57;7.70;;;13.60;99.90;;;;;;5049799;28;20681;-72
2023/08/29 02:16:59;;;;;;;8.70;7.90;;;13.60;99.90;;;;;;5049688;28;20567;-72
2023/08/29 02:19:28;;;;;;;7.80;7.10;;;13.60;99.90;;;;;;5062607;28;20193;-72
2023/08/29 02:21:53;;;;;;;7.80;7.10;;;13.60;99.90;;;;;;5066646;28;20255;-72
2023/08/29 02:24:19;;;;;;;7.80;7.10;;;13.60;99.90;;;;;;5064706;28;20408;-72
2023/08/29 02:26:45;;;;;;;9.00;8.20;;;13.60;99.90;;;;;;5055270;28;20174;-72
2023/08/29 02:29:10;;;;;;;10.17;9.20;;;13.60;99.90;;;;;;5051110;28;20565;-71
2023/08/29 02:31:37;;;;;;;10.43;9.30;;;13.60;99.90;;;;;;5050255;28;20721;-72
2023/08/29 02:34:02;;;;;;;10.90;9.90;;;13.60;99.90;;;;;;5050388;28;20178;-72
2023/08/29 02:36:28;;;;;;;10.63;9.67;;;13.60;99.90;;;;;;5049422;28;20415;-72
2023/08/29 02:38:54;;;;;;;10.10;9.20;;;13.60;99.90;;;;;;5049667;28;20201;-72
2023/08/29 02:41:19;;;;;;;10.13;9.30;;;13.60;99.90;;;;;;5050011;28;20542;-72
2023/08/29 02:43:45;;;;;;;10.67;9.67;;;13.60;99.90;;;;;;5050058;28;20197;-72
2023/08/29 02:46:11;;;;;;;10.17;9.27;;;13.60;99.90;;;;;;5048389;28;20185;-72
2023/08/29 02:48:36;;;;;;;10.37;9.47;;;13.60;99.90;;;;;;5049002;28;20212;-72
2023/08/29 02:51:02;;;;;;;11.60;10.50;;;13.60;99.90;;;;;;5048780;28;20268;-72
2023/08/29 02:53:29;;;;;;;11.70;10.13;;;13.60;99.90;;;;;;5049606;28;20205;-71
2023/08/29 02:55:56;;;;;;;11.70;10.50;;;13.70;99.90;;;;;;5049459;28;20459;-71
2023/08/29 02:58:22;;;;;;;11.00;10.00;;;13.80;99.90;;;;;;5049175;28;20823;-71
2023/08/29 03:00:59;;;;;;;10.80;9.80;;;13.80;99.90;;;;;;5047263;28;20427;-72
2023/08/29 03:03:26;;;;;;;11.00;10.00;;;13.80;99.90;;;;;;5049610;28;20409;-72
2023/08/29 03:05:59;;;;;;;12.03;11.00;;;13.80;99.90;;;;;;5048121;28;20444;-72
2023/08/29 03:08:25;;;;;;;13.13;11.37;;;13.80;99.90;;;;;;5048915;28;20917;-72
2023/08/29 03:10:52;;;;;;;12.40;11.20;;;13.80;99.90;;;;;;5049565;28;20455;-72
2023/08/29 03:13:18;;;;;;;13.10;11.90;;;13.80;99.90;;;;;;5049483;28;20991;-72
2023/08/29 03:15:45;;;;;;;14.27;12.87;;;13.90;99.90;;;;;;5049004;28;20510;-72
2023/08/29 03:18:11;;;;;;;15.27;13.67;;;13.90;99.90;;;;;;5048769;28;20921;-72
2023/08/29 03:20:43;;;;;;;13.33;12.03;;;13.90;99.90;;;;;;5049105;28;20958;-72
2023/08/29 03:23:10;;;;;;;13.90;12.60;;;13.90;99.90;;;;;;5049558;28;20420;-72
2023/08/29 03:25:36;;;;;;;13.83;12.50;;;13.90;99.90;;;;;;5048672;28;20831;-72
2023/08/29 03:28:02;;;;;;;14.17;12.87;;;13.90;99.90;;;;;;5047315;28;20440;-71
2023/08/29 03:30:29;;;;;;;14.87;13.40;;;13.90;99.90;;;;;;5048735;28;20412;-72
2023/08/29 03:32:55;;;;;;;14.37;13.17;;;13.90;99.90;;;;;;5049127;28;20420;-71
2023/08/29 03:35:21;;;;;;;16.57;14.97;;;13.90;99.90;;;;;;5048904;28;20462;-71
2023/08/29 03:37:46;;;;;;;15.30;13.80;;;13.90;99.90;;;;;;5048447;28;20196;-72
2023/08/29 03:40:13;;;;;;;15.20;13.80;;;13.90;99.90;;;;;;5049146;28;20272;-71
2023/08/29 03:42:39;;;;;;;14.83;13.33;;;13.90;99.90;;;;;;5048732;28;20193;-71
2023/08/29 03:45:06;;;;;;;15.30;14.00;;;13.90;99.90;;;;;;5047518;28;20413;-72
2023/08/29 03:47:33;;;;;;;14.90;13.60;;;13.90;99.90;;;;;;5047036;28;20769;-72
2023/08/29 03:49:59;;;;;;;13.73;12.43;;;13.90;99.90;;;;;;5048714;28;20446;-71
2023/08/29 03:52:26;;;;;;;15.53;14.13;;;13.90;99.90;;;;;;5048146;28;20408;-71
2023/08/29 03:54:53;;;;;;;16.20;14.60;;;13.90;99.90;;;;;;5046919;28;20448;-72
2023/08/29 03:57:20;;;;;;;16.47;14.97;;;13.90;99.90;;;;;;5048071;28;20796;-72
2023/08/29 03:59:46;;;;;;;14.47;13.07;;;13.90;99.90;;;;;;5061560;28;20436;-71
2023/08/29 04:02:12;;;;;;;15.00;13.40;;;13.90;99.90;;;;;;5047761;28;20817;-71
2023/08/29 04:04:38;;;;;;;14.17;12.77;;;13.90;99.90;;;;;;5048165;28;20416;-71
2023/08/29 04:07:04;;;;;;;14.50;13.20;;;13.90;99.90;;;;;;5047989;28;20185;-72
2023/08/29 04:09:30;;;;;;;13.17;11.97;;;13.80;99.90;;;;;;5048395;28;20255;-72
2023/08/29 04:11:56;;;;;;;13.30;11.90;;;13.80;99.90;;;;;;5048139;28;20470;-72
2023/08/29 04:14:22;;;;;;;11.60;10.53;;;13.80;99.90;;;;;;5048428;28;20456;-71
2023/08/29 04:16:48;;;;;;;12.17;11.07;;;13.70;99.90;;;;;;5047021;28;20559;-72
2023/08/29 04:19:14;;;;;;;12.00;10.80;;;13.60;99.90;;;;;;5047294;28;20985;-71
2023/08/29 04:21:40;;;;;;;12.37;11.30;;;13.60;99.90;;;;;;5047019;28;20423;-72
2023/08/29 04:24:07;;;;;;;12.30;11.20;;;13.50;99.90;;;;;;5048188;28;20413;-72
2023/08/29 04:26:33;;;;;;;11.97;10.77;;;13.50;99.90;;;;;;5047101;28;20405;-72
2023/08/29 04:28:58;;;;;;;12.50;11.30;;;13.50;99.90;;;;;;5063069;28;20499;-71
2023/08/29 04:31:25;;;;;;;12.33;10.87;;;13.40;99.90;;;;;;5047847;28;21133;-72
2023/08/29 04:33:51;;;;;;;11.60;10.60;;;13.50;99.90;;;;;;5046948;28;20256;-72
2023/08/29 04:36:17;;;;;;;13.27;12.07;;;13.50;99.90;;;;;;5048116;28;20886;-71
2023/08/29 04:38:45;;;;;;;11.97;10.97;;;13.50;99.90;;;;;;5045835;28;20585;-72
2023/08/29 04:41:11;;;;;;;12.63;11.53;;;13.40;99.90;;;;;;5047782;28;20190;-72
2023/08/29 04:43:38;;;;;;;13.10;11.70;;;13.40;99.90;;;;;;5048082;28;20452;-71
2023/08/29 04:46:04;;;;;;;12.47;11.27;;;13.40;99.90;;;;;;5047244;28;20416;-71
2023/08/29 04:48:30;;;;;;;13.10;10.73;;;13.40;99.90;;;;;;5047314;28;20436;-72
2023/08/29 04:50:56;;;;;;;11.60;10.60;;;13.40;99.90;;;;;;5046591;28;20419;-72
2023/08/29 04:53:21;;;;;;;11.33;10.33;;;13.40;99.90;;;;;;5047593;28;20276;-72
2023/08/29 04:55:47;;;;;;;12.03;10.87;;;13.40;99.90;;;;;;5047561;28;20260;-72
2023/08/29 04:58:13;;;;;;;13.53;12.33;;;13.40;99.90;;;;;;5046909;28;20297;-71
2023/08/29 05:00:39;;;;;;;13.40;12.20;;;13.40;99.90;;;;;;5046183;28;20189;-72
2023/08/29 05:03:05;;;;;;;14.03;12.73;;;13.50;99.90;;;;;;5047846;28;20173;-71
2023/08/29 05:05:31;;;;;;;14.00;12.60;;;13.50;99.90;;;;;;5047916;28;20768;-72
2023/08/29 05:07:57;;;;;;;14.57;12.87;;;13.50;99.90;;;;;;5046088;28;20182;-72
2023/08/29 05:10:24;;;;;;;14.00;12.70;;;13.50;99.90;;;;;;5046782;28;20180;-72
2023/08/29 05:12:49;;;;;;;14.17;12.83;;;13.50;99.90;;;;;;5048211;28;20972;-72
2023/08/29 05:15:16;;;;;;;12.97;11.70;;;13.50;99.90;;;;;;5047681;28;20452;-72
2023/08/29 05:17:42;;;;;;;13.17;11.97;;;13.50;99.90;;;;;;5047687;28;20170;-72
2023/08/29 05:20:09;;;;;;;12.03;10.93;;;13.50;99.90;;;;;;5048316;28;20469;-72
2023/08/29 05:22:36;;;;;;;14.63;13.13;;;13.50;99.90;;;;;;5046898;28;20646;-72
2023/08/29 05:25:01;;;;;;;14.83;13.33;;;13.50;99.90;;;;;;5048921;28;20413;-72
2023/08/29 05:27:27;;;;;;;16.60;14.90;;;13.60;99.90;;;;;;5065925;28;20416;-72
2023/08/29 05:29:53;;;;;;;17.43;15.27;;;13.60;99.90;;;;;;5062427;28;20440;-72
2023/08/29 05:32:19;;;;;;;17.07;15.47;;;13.70;99.90;;;;;;5057492;28;20264;-72
2023/08/29 05:34:44;;;;;;;18.27;15.50;;;13.80;99.90;;;;;;5049594;28;20200;-72
2023/08/29 05:37:10;;;;;;;16.33;14.63;;;14.00;99.90;;;;;;5048986;28;20178;-72
2023/08/29 05:39:35;;;;;;;18.53;16.63;;;14.00;99.90;;;;;;5046886;28;20202;-72
2023/08/29 05:42:01;;;;;;;17.63;15.70;;;14.10;99.90;;;;;;5047898;28;20297;-72
2023/08/29 05:44:27;;;;;;;17.50;15.20;;;14.20;99.90;;;;;;5047498;28;20178;-72
2023/08/29 05:46:52;;;;;;;17.80;15.70;;;14.30;99.90;;;;;;5046446;28;20189;-72
2023/08/29 05:49:18;;;;;;;18.97;17.17;;;14.30;99.90;;;;;;5046096;28;20289;-72
2023/08/29 05:51:45;;;;;;;19.33;16.50;;;14.30;99.90;;;;;;5047141;28;20169;-72
2023/08/29 05:54:10;;;;;;;18.17;16.47;;;14.40;99.90;;;;;;5047353;28;20209;-72
2023/08/29 05:56:37;;;;;;;19.03;17.27;;;14.40;99.90;;;;;;5046433;28;20725;-72
2023/08/29 05:59:04;;;;;;;19.53;17.73;;;14.50;99.90;;;;;;5045681;28;20796;-72
2023/08/29 06:01:30;;;;;;;20.30;18.23;;;14.50;99.90;;;;;;5046496;28;20408;-72
2023/08/29 06:03:55;;;;;;;18.83;16.33;;;14.50;99.90;;;;;;5047112;28;20420;-72
2023/08/29 06:06:21;;;;;;;18.37;16.27;;;14.50;99.90;;;;;;5046472;28;20642;-72
2023/08/29 06:08:47;;;;;;;17.77;15.87;;;14.50;99.90;;;;;;5046467;28;20674;-72
2023/08/29 06:11:13;;;;;;;18.40;15.73;;;14.50;99.90;;;;;;5047059;28;20448;-72
2023/08/29 06:13:39;;;;;;;19.73;15.57;;;14.50;99.90;;;;;;5047075;28;20267;-72
2023/08/29 06:16:05;;;;;;;16.20;14.70;;;14.60;99.90;;;;;;5050104;28;20517;-72
2023/08/29 06:18:32;;;;;;;19.27;17.37;;;14.60;99.90;;;;;;5049990;28;20208;-72
2023/08/29 06:20:59;;;;;;;22.47;20.27;;;14.60;99.90;;;;;;5049051;28;20193;-72
2023/08/29 06:23:24;;;;;;;20.77;18.67;;;14.60;99.90;;;;;;5050423;28;20714;-72
2023/08/29 06:25:52;;;;;;;19.37;17.50;;;14.60;99.90;;;;;;5050300;28;20443;-72
2023/08/29 06:28:17;;;;;;;24.13;21.80;;;14.70;99.90;;;;;;5049473;28;20671;-72
2023/08/29 06:30:44;;;;;;;24.13;21.83;;;14.70;99.90;;;;;;5049029;28;20458;-72
2023/08/29 06:33:11;;;;;;;22.20;20.20;;;14.70;99.90;;;;;;5050083;28;20225;-72
2023/08/29 06:35:39;;;;;;;20.63;18.53;;;14.80;99.90;;;;;;5050060;28;21170;-72
2023/08/29 06:38:06;;;;;;;18.00;16.20;;;14.80;99.90;;;;;;5049172;28;20174;-72
2023/08/29 06:40:31;;;;;;;20.30;18.33;;;14.80;99.90;;;;;;5050114;28;20423;-72
2023/08/29 06:42:58;;;;;;;20.20;18.20;;;14.80;99.90;;;;;;5049919;28;20800;-72
2023/08/29 06:45:23;;;;;;;19.43;17.53;;;14.90;99.90;;;;;;5049546;28;20307;-72
2023/08/29 06:47:49;;;;;;;18.17;16.57;;;14.90;99.90;;;;;;5049578;28;21025;-71
2023/08/29 06:50:16;;;;;;;19.47;17.40;;;14.90;99.90;;;;;;5049906;28;20252;-72
2023/08/29 06:52:41;;;;;;;18.47;16.77;;;14.90;99.90;;;;;;5050112;28;20225;-72
2023/08/29 06:55:09;;;;;;;16.43;14.83;;;14.90;99.90;;;;;;5049398;28;20487;-72
2023/08/29 06:57:35;;;;;;;18.17;16.37;;;14.90;99.90;;;;;;5064507;28;20231;-71
2023/08/29 07:00:01;;;;;;;15.40;14.00;;;15.00;99.90;;;;;;5063911;28;20432;-72
2023/08/29 07:02:27;;;;;;;16.63;14.93;;;15.10;99.90;;;;;;5048270;28;20273;-72
2023/08/29 07:04:52;;;;;;;18.47;16.70;;;15.10;99.90;;;;;;5049532;28;20261;-72
2023/08/29 07:07:18;;;;;;;17.83;16.10;;;15.10;99.90;;;;;;5048929;28;20173;-72
2023/08/29 07:09:44;;;;;;;18.57;16.77;;;15.20;99.90;;;;;;5048618;28;20208;-72
2023/08/29 07:12:10;;;;;;;18.60;16.80;;;15.20;99.90;;;;;;5049680;28;20413;-72
2023/08/29 07:14:35;;;;;;;16.07;14.57;;;15.30;99.90;;;;;;5049128;28;20237;-72
2023/08/29 07:17:01;;;;;;;17.50;15.90;;;15.30;99.90;;;;;;5048775;28;20227;-72
2023/08/29 07:19:28;;;;;;;16.97;15.10;;;15.40;99.90;;;;;;5049104;28;20561;-72
2023/08/29 07:21:54;;;;;;;15.13;13.67;;;15.40;99.90;;;;;;5049472;28;20682;-72
2023/08/29 07:24:20;;;;;;;16.53;14.77;;;15.50;99.90;;;;;;5049091;28;20503;-71
2023/08/29 07:26:45;;;;;;;12.83;11.73;;;15.50;99.90;;;;;;5048072;28;20205;-72
2023/08/29 07:29:11;;;;;;;13.90;12.53;;;15.60;99.90;;;;;;5049297;28;20611;-72
2023/08/29 07:31:37;;;;;;;13.83;12.50;;;15.60;99.90;;;;;;5048744;28;20190;-72
2023/08/29 07:34:03;;;;;;;16.50;14.90;;;15.60;99.90;;;;;;5049161;28;20174;-72
2023/08/29 07:36:28;;;;;;;15.47;13.97;;;15.60;99.90;;;;;;5048058;28;20220;-72
2023/08/29 07:38:54;;;;;;;16.07;14.47;;;15.50;99.90;;;;;;5048892;28;20841;-72
2023/08/29 07:41:20;;;;;;;15.27;13.80;;;15.50;99.90;;;;;;5048875;28;20185;-72
2023/08/29 07:43:46;;;;;;;16.43;14.83;;;15.50;99.90;;;;;;5047377;28;20657;-72
2023/08/29 07:46:12;;;;;;;16.53;14.97;;;15.60;99.90;;;;;;5048622;28;20178;-72
2023/08/29 07:48:37;;;;;;;16.97;15.20;;;15.70;99.90;;;;;;5047959;28;20428;-72
2023/08/29 07:51:03;;;;;;;20.03;17.37;;;15.80;99.90;;;;;;5047513;28;20178;-71
2023/08/29 07:53:29;;;;;;;17.50;15.03;;;15.80;99.90;;;;;;5047741;28;20186;-72
2023/08/29 07:55:54;;;;;;;15.03;13.63;;;15.80;99.90;;;;;;5048047;28;20205;-71
2023/08/29 07:58:20;;;;;;;16.87;15.07;;;15.90;99.90;;;;;;5048074;28;20297;-71
2023/08/29 08:00:46;;;;;;;17.30;15.70;;;15.90;99.90;;;;;;5046890;28;20185;-72
2023/08/29 08:03:11;;;;;;;16.10;14.40;;;16.00;99.90;;;;;;5048584;28;20213;-72
2023/08/29 08:05:37;;;;;;;21.60;19.50;;;16.00;99.90;;;;;;5047207;28;20273;-72
2023/08/29 08:08:04;;;;;;;20.23;18.30;;;16.10;99.90;;;;;;5046661;28;20177;-72
2023/08/29 08:10:30;;;;;;;18.33;16.53;;;16.00;99.90;;;;;;5048686;28;20186;-72
2023/08/29 08:12:56;;;;;;;19.60;17.70;;;16.00;99.90;;;;;;5046919;28;20574;-72
2023/08/29 08:15:21;;;;;;;19.80;18.00;;;16.00;99.90;;;;;;5048253;28;20212;-72
2023/08/29 08:17:48;;;;;;;17.70;16.00;;;16.00;99.90;;;;;;5047969;28;20248;-72
2023/08/29 08:20:14;;;;;;;19.30;17.40;;;16.00;99.90;;;;;;5048406;28;20188;-72
2023/08/29 08:22:40;;;;;;;18.10;16.30;;;16.10;99.90;;;;;;5048365;28;20909;-71
2023/08/29 08:25:08;;;;;;;20.10;18.27;;;16.10;99.90;;;;;;5048068;28;20430;-72
2023/08/29 08:27:34;;;;;;;18.27;16.47;;;16.20;99.90;;;;;;5048006;28;20893;-71
2023/08/29 08:30:00;;;;;;;20.00;17.93;;;16.20;99.90;;;;;;5048989;28;20943;-72
2023/08/29 08:32:26;;;;;;;19.20;17.47;;;16.20;99.90;;;;;;5059850;28;20443;-72
2023/08/29 08:34:54;;;;;;;17.80;16.10;;;16.30;99.90;;;;;;5061087;28;20463;-72
2023/08/29 08:37:20;;;;;;;20.23;18.27;;;16.40;99.90;;;;;;5058320;28;20174;-72
2023/08/29 08:39:46;;;;;;;20.70;17.90;;;16.40;99.90;;;;;;5051735;28;20520;-72
2023/08/29 08:42:12;;;;;;;19.67;17.30;;;16.40;99.90;;;;;;5048581;28;20190;-72
2023/08/29 08:44:38;;;;;;;19.17;17.37;;;16.40;99.90;;;;;;5046791;28;20243;-72
2023/08/29 08:47:05;;;;;;;20.33;18.33;;;16.30;99.90;;;;;;5047671;28;20936;-72
2023/08/29 08:49:31;;;;;;;22.33;18.00;;;16.40;99.90;;;;;;5047719;28;20440;-72
2023/08/29 08:51:58;;;;;;;19.33;17.43;;;16.30;99.90;;;;;;5046711;28;20413;-71
2023/08/29 08:54:27;;;;;;;19.27;16.77;;;16.50;99.90;;;;;;5047394;28;20992;-72
2023/08/29 08:56:57;;;;;;;19.67;17.70;;;16.60;99.90;;;;;;5046891;28;20409;-72
2023/08/29 08:59:24;;;;;;;16.80;15.27;;;16.60;99.90;;;;;;5045605;28;20436;-72
2023/08/29 09:01:50;;;;;;;17.63;14.63;;;16.70;99.90;;;;;;5047767;28;20947;-72
2023/08/29 09:04:15;;;;;;;16.57;14.97;;;16.80;99.90;;;;;;5047537;28;20419;-72
2023/08/29 09:06:41;;;;;;;15.70;14.17;;;16.80;99.90;;;;;;5046645;28;20491;-72
2023/08/29 09:09:17;;;;;;;15.80;14.20;;;16.80;99.90;;;;;;5047329;28;20220;-72
2023/08/29 09:11:43;;;;;;;15.50;11.90;;;16.90;99.90;;;;;;5046257;28;20177;-71
2023/08/29 09:14:09;;;;;;;12.83;11.37;;;17.10;99.90;;;;;;5047419;28;20424;-72
2023/08/29 09:16:35;;;;;;;14.10;11.80;;;17.20;99.90;;;;;;5045029;28;20428;-72
2023/08/29 09:19:06;;;;;;;11.87;10.77;;;17.30;99.90;;;;;;5047521;28;20807;-72
2023/08/29 09:21:33;;;;;;;14.80;13.40;;;17.40;99.90;;;;;;5047434;28;20515;-72
2023/08/29 09:23:58;;;;;;;15.23;12.83;;;17.50;99.90;;;;;;5047473;28;21089;-72
2023/08/29 09:26:32;;;;;;;13.87;12.43;;;17.50;99.90;;;;;;5046227;28;20423;-71
2023/08/29 09:28:58;;;;;;;11.43;10.23;;;17.70;99.90;;;;;;5047318;28;20620;-71
2023/08/29 09:31:25;;;;;;;12.00;9.80;;;17.80;99.90;;;;;;5046995;28;20437;-72
2023/08/29 09:33:50;;;;;;;11.27;10.17;;;17.90;99.90;;;;;;5047278;28;20770;-72
2023/08/29 09:36:16;;;;;;;12.90;11.07;;;17.90;99.90;;;;;;5046627;28;20463;-72
2023/08/29 09:38:43;;;;;;;11.50;10.40;;;17.90;99.90;;;;;;5046421;28;20190;-71
2023/08/29 09:41:15;;;;;;;12.53;10.33;;;17.90;99.90;;;;;;5047352;28;20416;-72
2023/08/29 09:43:48;;;;;;;9.60;8.80;;;17.90;99.90;;;;;;5045855;28;20412;-72
2023/08/29 09:46:19;;;;;;;10.20;9.10;;;18.00;99.90;;;;;;5046625;28;20423;-72
2023/08/29 09:48:55;;;;;;;10.00;9.00;;;18.10;99.90;;;;;;5046933;28;20554;-72
2023/08/29 09:51:24;;;;;;;11.80;10.57;;;18.10;99.90;;;;;;5051159;28;20451;-72
2023/08/29 09:53:50;;;;;;;11.93;10.00;;;18.20;99.90;;;;;;5050961;28;20416;-72
2023/08/29 09:56:19;;;;;;;12.67;11.43;;;18.20;99.90;;;;;;5050361;28;20960;-72
2023/08/29 09:58:46;;;;;;;12.53;11.30;;;18.20;99.90;;;;;;5050404;28;20894;-72
2023/08/29 10:01:13;;;;;;;11.30;10.30;;;18.10;99.90;;;;;;5050256;28;20499;-72
2023/08/29 10:03:40;;;;;;;11.73;10.00;;;18.10;99.90;;;;;;5051127;28;20420;-72
2023/08/29 10:06:09;;;;;;;9.37;8.47;;;18.10;99.90;;;;;;5048927;28;20968;-72
2023/08/29 10:08:51;;;;;;;9.00;8.10;;;18.10;99.90;;;;;;5050059;28;20442;-72
2023/08/29 10:11:19;;;;;;;10.23;9.33;;;18.10;99.90;;;;;;5049561;28;20793;-72
2023/08/29 10:13:46;;;;;;;9.60;8.60;;;18.20;99.90;;;;;;5050484;28;20439;-72
2023/08/29 10:16:13;;;;;;;11.70;10.53;;;18.30;99.90;;;;;;5050139;28;20455;-72
2023/08/29 10:18:39;;;;;;;11.33;10.40;;;18.40;99.90;;;;;;5048655;28;20439;-72
2023/08/29 10:21:05;;;;;;;12.80;11.60;;;18.40;99.90;;;;;;5050266;28;20474;-72
2023/08/29 10:23:32;;;;;;;13.00;11.90;;;18.40;99.90;;;;;;5050520;28;20416;-72
2023/08/29 10:26:00;;;;;;;11.87;10.67;;;18.50;99.90;;;;;;5049840;28;20805;-72
2023/08/29 10:28:29;;;;;;;12.07;10.80;;;18.50;99.90;;;;;;5049998;28;20451;-72
2023/08/29 10:30:59;;;;;;;10.40;9.50;;;18.50;99.90;;;;;;5049895;28;21002;-72
2023/08/29 10:33:25;;;;;;;9.27;8.40;;;18.60;99.90;;;;;;5050536;28;20440;-72
2023/08/29 10:35:52;;;;;;;10.60;9.70;;;18.70;99.90;;;;;;5050514;28;20495;-72
2023/08/29 10:38:18;;;;;;;9.63;8.57;;;18.80;99.90;;;;;;5048368;28;21127;-71
2023/08/29 10:40:46;;;;;;;8.17;7.37;;;18.80;99.90;;;;;;5050235;28;20495;-72
2023/08/29 10:43:19;;;;;;;5.97;5.47;;;18.90;99.90;;;;;;5049903;28;20444;-72
2023/08/29 10:45:54;;;;;;;6.90;6.20;;;18.90;99.90;;;;;;5049757;28;20929;-72
2023/08/29 10:48:21;;;;;;;8.27;5.30;;;19.00;99.90;;;;;;5049503;28;20471;-72
2023/08/29 10:51:25;;;;;;;6.70;5.60;;;19.20;99.90;;;;;;5049882;28;20546;-71
2023/08/29 10:53:52;;;;;;;4.27;3.83;;;19.20;99.90;;;;;;5049864;28;20415;-72
2023/08/29 10:56:20;;;;;;;4.90;4.50;;;19.20;99.90;;;;;;5048103;28;20974;-71
2023/08/29 10:58:50;;;;;;;4.37;3.90;;;19.20;99.90;;;;;;5049381;28;21055;-72
2023/08/29 11:01:26;;;;;;;4.23;3.83;;;19.40;99.90;;;;;;5048747;28;21086;-71
2023/08/29 11:03:52;;;;;;;4.13;3.57;;;19.40;99.90;;;;;;5049634;28;20815;-72
2023/08/29 11:06:22;;;;;;;4.37;4.03;;;19.50;99.90;;;;;;5047691;28;20420;-72
2023/08/29 11:08:49;;;;;;;3.20;2.90;;;19.70;99.90;;;;;;5049384;28;20535;-72
2023/08/29 11:11:18;;;;;;;2.30;2.10;;;19.70;99.90;;;;;;5049670;28;20454;-71
2023/08/29 11:14:02;;;;;;;2.70;2.50;;;19.90;99.90;;;;;;5049663;28;20469;-72
2023/08/29 11:16:35;;;;;;;2.40;2.00;;;20.00;99.90;;;;;;5047598;28;20544;-72
2023/08/29 11:19:09;;;;;;;5.03;4.50;;;20.00;99.90;;;;;;5049617;28;20432;-72
2023/08/29 11:21:35;;;;;;;2.40;2.20;;;20.10;99.90;;;;;;5048574;28;21196;-72
2023/08/29 11:24:03;;;;;;;1.87;1.67;;;20.20;99.90;;;;;;5049628;28;20409;-72
2023/08/29 11:26:29;;;;;;;2.80;1.60;;;20.30;99.90;;;;;;5049242;28;20439;-72
2023/08/29 11:28:55;;;;;;;4.03;3.20;;;20.40;99.90;;;;;;5049351;28;20528;-72
2023/08/29 11:31:21;;;;;;;2.60;2.40;;;20.60;99.90;;;;;;5049830;28;20538;-72
2023/08/29 11:33:47;;;;;;;2.40;2.03;;;20.60;99.90;;;;;;5049992;28;20227;-72
2023/08/29 11:36:13;;;;;;;2.07;1.80;;;20.60;99.90;;;;;;5050282;28;20666;-72
2023/08/29 11:38:39;;;;;;;1.93;1.40;;;20.70;99.90;;;;;;5057898;28;20412;-72
2023/08/29 11:41:05;;;;;;;2.00;1.50;;;20.80;99.90;;;;;;5065011;28;20201;-72
2023/08/29 11:43:33;;;;;;;2.30;2.10;;;20.90;99.90;;;;;;5064359;28;20474;-72
2023/08/29 11:46:04;;;;;;;2.17;1.77;;;20.90;99.90;;;;;;5053535;28;20462;-72
2023/08/29 11:48:31;;;;;;;3.17;2.77;;;20.80;99.90;;;;;;5048184;28;20444;-72
2023/08/29 11:51:01;;;;;;;3.60;3.30;;;20.90;99.90;;;;;;5047625;28;20499;-72
2023/08/29 11:53:37;;;;;;;3.00;2.13;;;21.00;99.90;;;;;;5048834;28;20419;-72
2023/08/29 11:56:05;;;;;;;2.50;2.10;;;20.90;99.90;;;;;;5047251;28;20462;-72
2023/08/29 11:58:36;;;;;;;3.20;2.87;;;20.80;99.90;;;;;;5030332;28;20432;-72
2023/08/29 12:01:07;;;;;;;2.63;2.43;;;20.80;99.90;;;;;;5048245;28;20420;-73
2023/08/29 12:03:38;;;;;;;10.60;3.80;;;20.80;99.90;;;;;;5048505;28;20423;-72
2023/08/29 12:06:12;;;;;;;4.63;4.23;;;20.80;99.90;;;;;;5048165;28;20417;-72
2023/08/29 12:08:43;;;;;;;2.67;2.30;;;20.90;99.90;;;;;;5047788;28;20490;-72
2023/08/29 12:11:13;;;;;;;2.27;2.07;;;20.90;99.90;;;;;;5048422;28;20412;-73
2023/08/29 12:13:41;;;;;;;5.37;2.40;;;20.90;99.90;;;;;;5047747;28;20520;-72
2023/08/29 12:16:16;;;;;;;2.27;2.07;;;21.00;99.90;;;;;;5048082;28;20550;-73
2023/08/29 12:18:42;;;;;;;2.30;2.10;;;21.10;99.90;;;;;;5047745;28;20829;-72
2023/08/29 12:21:20;;;;;;;5.37;4.87;;;21.10;99.90;;;;;;5048346;28;20759;-73
2023/08/29 12:23:46;;;;;;;5.10;4.60;;;21.10;99.90;;;;;;5048484;28;20462;-72
2023/08/29 12:26:12;;;;;;;5.90;5.40;;;21.10;99.90;;;;;;5047510;28;20881;-72
2023/08/29 12:28:39;;;;;;;5.37;4.87;;;21.20;99.90;;;;;;5047342;28;20448;-72
2023/08/29 12:31:06;;;;;;;5.77;5.27;;;21.30;99.90;;;;;;5048102;28;20528;-72
2023/08/29 12:33:32;;;;;;;5.90;5.40;;;21.30;99.90;;;;;;5048004;28;20467;-72
2023/08/29 12:35:58;;;;;;;6.00;5.60;;;21.20;99.90;;;;;;5047479;28;20964;-73